sensor_id;sensor_type;location;lat;lon;timestamp;pressure;altitude;pressure_sealevel;temperature;humidity
65280;BME280;51878;55.748;48.742;2024-03-02T00:04:31;100410.06;;;-3.11;100.00
65280;BME280;51878;55.748;48.742;2024-03-02T00:09:33;100388.69;;;-3.25;100.00
65280;BME280;51878;55.748;48.742;2024-03-02T00:14:35;100478.53;;;-2.83;100.00
65280;BME280;51878;55.748;48.742;2024-03-02T00:19:39;100423.88;;;-3.22;100.00
65280;BME280;51878;55.748;48.742;2024-03-02T00:24:41;100431.16;;;-3.27;100.00
65280;BME280;51878;55.748;48.742;2024-03-02T00:29:44;100479.72;;;-3.07;100.00
65280;BME280;51878;55.748;48.742;2024-03-02T00:34:46;100435.84;;;-3.32;100.00
65280;BME280;51878;55.748;48.742;2024-03-02T00:39:49;100395.31;;;-3.53;100.00
65280;BME280;51878;55.748;48.742;2024-03-02T00:44:51;100347.38;;;-3.85;100.00
65280;BME280;51878;55.748;48.742;2024-03-02T00:49:53;100435.41;;;-3.42;100.00
65280;BME280;51878;55.748;48.742;2024-03-02T00:54:57;100452.31;;;-3.44;100.00
65280;BME280;51878;55.748;48.742;2024-03-02T01:00:00;100480.97;;;-3.34;100.00
65280;BME280;51878;55.748;48.742;2024-03-02T01:05:04;100466.66;;;-3.48;100.00
65280;BME280;51878;55.748;48.742;2024-03-02T01:10:07;100480.78;;;-3.48;100.00
65280;BME280;51878;55.748;48.742;2024-03-02T01:15:09;100456.84;;;-3.65;100.00
65280;BME280;51878;55.748;48.742;2024-03-02T01:20:11;100451.63;;;-3.67;100.00
65280;BME280;51878;55.748;48.742;2024-03-02T01:25:14;100351.09;;;-4.27;100.00
65280;BME280;51878;55.748;48.742;2024-03-02T01:30:16;100499.91;;;-3.41;100.00
65280;BME280;51878;55.748;48.742;2024-03-02T01:35:18;100497.16;;;-3.40;100.00
65280;BME280;51878;55.748;48.742;2024-03-02T01:40:20;100455.00;;;-3.63;100.00
65280;BME280;51878;55.748;48.742;2024-03-02T01:45:23;100492.88;;;-3.42;100.00
65280;BME280;51878;55.748;48.742;2024-03-02T01:50:27;100481.34;;;-3.60;100.00
65280;BME280;51878;55.748;48.742;2024-03-02T01:55:30;100456.97;;;-3.68;100.00
65280;BME280;51878;55.748;48.742;2024-03-02T02:00:32;100496.47;;;-3.43;100.00
65280;BME280;51878;55.748;48.742;2024-03-02T02:05:35;100525.25;;;-3.36;100.00
65280;BME280;51878;55.748;48.742;2024-03-02T02:10:37;100471.69;;;-3.61;100.00
65280;BME280;51878;55.748;48.742;2024-03-02T02:15:39;100476.63;;;-3.54;100.00
65280;BME280;51878;55.748;48.742;2024-03-02T02:20:42;100467.09;;;-3.39;100.00
65280;BME280;51878;55.748;48.742;2024-03-02T02:25:44;100520.47;;;-2.91;100.00
65280;BME280;51878;55.748;48.742;2024-03-02T02:30:46;100525.44;;;-2.83;100.00
65280;BME280;51878;55.748;48.742;2024-03-02T02:35:49;100498.69;;;-2.98;100.00
65280;BME280;51878;55.748;48.742;2024-03-02T02:40:51;100451.31;;;-3.23;100.00
65280;BME280;51878;55.748;48.742;2024-03-02T02:45:53;100504.56;;;-3.08;100.00
65280;BME280;51878;55.748;48.742;2024-03-02T02:50:55;100496.66;;;-3.29;100.00
65280;BME280;51878;55.748;48.742;2024-03-02T02:55:58;100535.06;;;-3.00;100.00
65280;BME280;51878;55.748;48.742;2024-03-02T03:01:00;100532.28;;;-3.16;100.00
65280;BME280;51878;55.748;48.742;2024-03-02T03:06:02;100539.22;;;-3.13;100.00
65280;BME280;51878;55.748;48.742;2024-03-02T03:11:05;100559.72;;;-2.98;100.00
65280;BME280;51878;55.748;48.742;2024-03-02T03:16:07;100541.38;;;-3.02;100.00
65280;BME280;51878;55.748;48.742;2024-03-02T03:21:09;100547.97;;;-2.92;100.00
65280;BME280;51878;55.748;48.742;2024-03-02T03:26:11;100500.47;;;-3.35;100.00
65280;BME280;51878;55.748;48.742;2024-03-02T03:31:14;100544.00;;;-3.02;100.00
65280;BME280;51878;55.748;48.742;2024-03-02T03:36:16;100475.03;;;-3.39;100.00
65280;BME280;51878;55.748;48.742;2024-03-02T03:41:18;100562.41;;;-2.80;100.00
65280;BME280;51878;55.748;48.742;2024-03-02T03:46:20;100478.31;;;-3.34;100.00
65280;BME280;51878;55.748;48.742;2024-03-02T03:51:23;100568.16;;;-2.71;100.00
65280;BME280;51878;55.748;48.742;2024-03-02T03:56:25;100531.97;;;-2.91;100.00
65280;BME280;51878;55.748;48.742;2024-03-02T04:01:27;100552.81;;;-2.83;100.00
65280;BME280;51878;55.748;48.742;2024-03-02T04:06:30;100527.59;;;-2.92;100.00
65280;BME280;51878;55.748;48.742;2024-03-02T04:11:32;100566.06;;;-2.64;100.00
65280;BME280;51878;55.748;48.742;2024-03-02T04:16:34;100578.31;;;-2.61;100.00
65280;BME280;51878;55.748;48.742;2024-03-02T04:21:37;100602.94;;;-2.40;100.00
65280;BME280;51878;55.748;48.742;2024-03-02T04:26:39;100592.81;;;-2.32;100.00
65280;BME280;51878;55.748;48.742;2024-03-02T04:31:41;100566.09;;;-2.46;100.00
65280;BME280;51878;55.748;48.742;2024-03-02T04:36:43;100581.50;;;-2.18;100.00
65280;BME280;51878;55.748;48.742;2024-03-02T04:41:46;100597.00;;;-1.92;100.00
65280;BME280;51878;55.748;48.742;2024-03-02T04:46:48;100584.94;;;-1.81;100.00
65280;BME280;51878;55.748;48.742;2024-03-02T04:51:50;100578.50;;;-1.60;100.00
65280;BME280;51878;55.748;48.742;2024-03-02T04:56:53;100558.41;;;-1.32;100.00
65280;BME280;51878;55.748;48.742;2024-03-02T05:01:55;100560.06;;;-1.14;100.00
65280;BME280;51878;55.748;48.742;2024-03-02T05:06:57;100540.91;;;-1.70;100.00
65280;BME280;51878;55.748;48.742;2024-03-02T05:12:00;100612.97;;;-1.41;100.00
65280;BME280;51878;55.748;48.742;2024-03-02T05:17:22;100562.00;;;-1.33;100.00
65280;BME280;51878;55.748;48.742;2024-03-02T05:22:24;100602.50;;;-1.28;100.00
65280;BME280;51878;55.748;48.742;2024-03-02T05:27:27;100573.41;;;-1.31;100.00
65280;BME280;51878;55.748;48.742;2024-03-02T05:32:29;100531.47;;;-1.75;100.00
65280;BME280;51878;55.748;48.742;2024-03-02T05:37:32;100612.72;;;-1.36;100.00
65280;BME280;51878;55.748;48.742;2024-03-02T05:42:34;100575.19;;;-1.48;100.00
65280;BME280;51878;55.748;48.742;2024-03-02T05:47:37;100624.00;;;-1.15;100.00
65280;BME280;51878;55.748;48.742;2024-03-02T05:52:42;100626.78;;;-0.85;100.00
65280;BME280;51878;55.748;48.742;2024-03-02T05:57:45;100594.91;;;-0.71;100.00
65280;BME280;51878;55.748;48.742;2024-03-02T06:02:51;100613.31;;;-0.50;100.00
65280;BME280;51878;55.748;48.742;2024-03-02T06:07:53;100626.72;;;-0.68;100.00
65280;BME280;51878;55.748;48.742;2024-03-02T06:12:56;100603.50;;;-0.97;100.00
65280;BME280;51878;55.748;48.742;2024-03-02T06:18:01;100663.91;;;-0.66;100.00
65280;BME280;51878;55.748;48.742;2024-03-02T06:23:04;100611.00;;;-0.56;100.00
65280;BME280;51878;55.748;48.742;2024-03-02T06:28:06;100670.63;;;0.19;100.00
65280;BME280;51878;55.748;48.742;2024-03-02T06:33:09;100668.72;;;0.66;100.00
65280;BME280;51878;55.748;48.742;2024-03-02T06:38:11;100624.13;;;0.68;100.00
65280;BME280;51878;55.748;48.742;2024-03-02T06:43:14;100658.19;;;1.21;100.00
65280;BME280;51878;55.748;48.742;2024-03-02T06:48:17;100651.41;;;1.30;94.19
65280;BME280;51878;55.748;48.742;2024-03-02T06:53:22;100652.72;;;1.37;95.70
65280;BME280;51878;55.748;48.742;2024-03-02T06:58:24;100646.19;;;1.56;91.95
65280;BME280;51878;55.748;48.742;2024-03-02T07:03:26;100647.72;;;2.14;89.76
65280;BME280;51878;55.748;48.742;2024-03-02T07:08:29;100666.75;;;2.88;81.55
65280;BME280;51878;55.748;48.742;2024-03-02T07:13:31;100583.31;;;2.30;75.27
65280;BME280;51878;55.748;48.742;2024-03-02T07:18:36;100663.66;;;2.81;76.84
65280;BME280;51878;55.748;48.742;2024-03-02T07:23:56;100690.63;;;2.65;76.56
65280;BME280;51878;55.748;48.742;2024-03-02T07:29:03;100586.25;;;1.60;76.99
65280;BME280;51878;55.748;48.742;2024-03-02T07:34:06;100659.50;;;2.24;83.56
65280;BME280;51878;55.748;48.742;2024-03-02T07:39:08;100672.53;;;3.07;75.58
65280;BME280;51878;55.748;48.742;2024-03-02T07:44:13;100655.75;;;3.79;69.51
65280;BME280;51878;55.748;48.742;2024-03-02T07:49:16;100672.34;;;4.68;70.34
65280;BME280;51878;55.748;48.742;2024-03-02T07:54:19;100643.03;;;4.65;63.77
65280;BME280;51878;55.748;48.742;2024-03-02T07:59:22;100678.50;;;4.81;62.40
65280;BME280;51878;55.748;48.742;2024-03-02T08:04:24;100644.16;;;5.64;60.54
65280;BME280;51878;55.748;48.742;2024-03-02T08:09:26;100688.59;;;6.02;57.38
65280;BME280;51878;55.748;48.742;2024-03-02T08:14:30;100656.25;;;5.69;59.25
65280;BME280;51878;55.748;48.742;2024-03-02T08:19:32;100660.34;;;6.60;58.75
65280;BME280;51878;55.748;48.742;2024-03-02T08:24:35;100660.19;;;7.35;54.16
65280;BME280;51878;55.748;48.742;2024-03-02T08:29:38;100681.47;;;7.59;53.27
65280;BME280;51878;55.748;48.742;2024-03-02T08:34:41;100671.56;;;7.89;52.45
65280;BME280;51878;55.748;48.742;2024-03-02T08:39:45;100663.88;;;7.34;51.15
65280;BME280;51878;55.748;48.742;2024-03-02T08:44:47;100664.53;;;7.57;51.42
65280;BME280;51878;55.748;48.742;2024-03-02T08:49:50;100645.75;;;6.63;51.16
65280;BME280;51878;55.748;48.742;2024-03-02T08:54:52;100696.16;;;6.19;52.19
65280;BME280;51878;55.748;48.742;2024-03-02T08:59:54;100630.78;;;5.85;53.51
65280;BME280;51878;55.748;48.742;2024-03-02T09:04:57;100677.84;;;6.66;51.73
65280;BME280;51878;55.748;48.742;2024-03-02T09:09:59;100683.41;;;6.74;51.42
65280;BME280;51878;55.748;48.742;2024-03-02T09:15:02;100654.28;;;7.10;51.23
65280;BME280;51878;55.748;48.742;2024-03-02T09:20:06;100638.81;;;7.53;48.19
65280;BME280;51878;55.748;48.742;2024-03-02T09:25:08;100642.06;;;8.26;47.68
65280;BME280;51878;55.748;48.742;2024-03-02T09:30:11;100679.88;;;8.75;46.08
65280;BME280;51878;55.748;48.742;2024-03-02T09:35:13;100669.72;;;9.06;45.68
65280;BME280;51878;55.748;48.742;2024-03-02T09:40:16;100689.44;;;9.63;44.63
65280;BME280;51878;55.748;48.742;2024-03-02T09:45:23;100675.97;;;9.54;44.06
65280;BME280;51878;55.748;48.742;2024-03-02T09:50:26;100692.00;;;10.38;43.29
65280;BME280;51878;55.748;48.742;2024-03-02T09:55:29;100687.31;;;9.67;42.07
65280;BME280;51878;55.748;48.742;2024-03-02T10:00:31;100678.63;;;9.63;43.53
65280;BME280;51878;55.748;48.742;2024-03-02T10:05:33;100647.34;;;9.14;43.23
65280;BME280;51878;55.748;48.742;2024-03-02T10:10:40;100568.66;;;8.50;43.12
65280;BME280;51878;55.748;48.742;2024-03-02T10:15:44;100489.59;;;8.85;42.54
65280;BME280;51878;55.748;48.742;2024-03-02T10:20:46;100656.13;;;10.08;40.63
65280;BME280;51878;55.748;48.742;2024-03-02T10:25:50;100616.41;;;10.53;40.50
65280;BME280;51878;55.748;48.742;2024-03-02T10:30:58;100620.94;;;11.23;39.41
65280;BME280;51878;55.748;48.742;2024-03-02T10:36:00;100684.34;;;10.95;38.77
65280;BME280;51878;55.748;48.742;2024-03-02T10:41:04;100686.84;;;11.41;37.70
65280;BME280;51878;55.748;48.742;2024-03-02T10:46:06;100697.56;;;11.16;39.00
65280;BME280;51878;55.748;48.742;2024-03-02T10:51:09;100675.66;;;11.44;37.77
65280;BME280;51878;55.748;48.742;2024-03-02T10:56:16;100642.53;;;12.42;35.26
65280;BME280;51878;55.748;48.742;2024-03-02T11:01:33;100625.38;;;12.42;34.56
65280;BME280;51878;55.748;48.742;2024-03-02T11:06:52;100697.78;;;12.92;34.54
65280;BME280;51878;55.748;48.742;2024-03-02T11:12:09;100624.69;;;12.64;33.89
65280;BME280;51878;55.748;48.742;2024-03-02T11:17:15;100634.44;;;13.78;32.98
65280;BME280;51878;55.748;48.742;2024-03-02T11:22:20;100688.22;;;14.47;31.62
65280;BME280;51878;55.748;48.742;2024-03-02T11:32:55;100708.28;;;15.68;30.64
65280;BME280;51878;55.748;48.742;2024-03-02T11:37:58;100705.22;;;16.22;30.45
65280;BME280;51878;55.748;48.742;2024-03-02T11:43:04;100614.59;;;15.44;29.98
65280;BME280;51878;55.748;48.742;2024-03-02T11:48:08;100637.59;;;15.35;30.18
65280;BME280;51878;55.748;48.742;2024-03-02T11:53:16;100695.63;;;14.84;30.67
65280;BME280;51878;55.748;48.742;2024-03-02T11:58:19;100708.00;;;15.93;30.26
65280;BME280;51878;55.748;48.742;2024-03-02T12:03:26;100646.94;;;15.26;29.50
65280;BME280;51878;55.748;48.742;2024-03-02T12:08:33;100619.31;;;15.06;29.81
65280;BME280;51878;55.748;48.742;2024-03-02T12:13:39;100653.25;;;15.41;29.63
65280;BME280;51878;55.748;48.742;2024-03-02T12:18:42;100690.75;;;15.33;30.59
65280;BME280;51878;55.748;48.742;2024-03-02T12:23:45;100708.84;;;14.73;30.89
65280;BME280;51878;55.748;48.742;2024-03-02T12:28:48;100629.72;;;13.95;30.96
65280;BME280;51878;55.748;48.742;2024-03-02T12:33:50;100707.59;;;14.60;31.31
65280;BME280;51878;55.748;48.742;2024-03-02T12:38:53;100731.59;;;14.88;31.20
65280;BME280;51878;55.748;48.742;2024-03-02T12:43:56;100696.41;;;14.93;30.63
65280;BME280;51878;55.748;48.742;2024-03-02T12:49:07;100653.03;;;13.67;31.02
65280;BME280;51878;55.748;48.742;2024-03-02T12:54:10;100661.16;;;13.35;32.25
65280;BME280;51878;55.748;48.742;2024-03-02T12:59:20;100714.34;;;13.71;32.19
65280;BME280;51878;55.748;48.742;2024-03-02T13:04:29;100526.22;;;12.60;31.93
65280;BME280;51878;55.748;48.742;2024-03-02T13:09:31;100722.00;;;14.15;31.84
65280;BME280;51878;55.748;48.742;2024-03-02T13:14:35;100701.38;;;13.81;31.88
65280;BME280;51878;55.748;48.742;2024-03-02T13:19:38;100665.63;;;13.12;32.38
65280;BME280;51878;55.748;48.742;2024-03-02T13:24:40;100685.25;;;11.99;33.83
65280;BME280;51878;55.748;48.742;2024-03-02T13:29:44;100723.13;;;12.51;34.03
65280;BME280;51878;55.748;48.742;2024-03-02T13:34:46;100656.97;;;12.51;33.54
65280;BME280;51878;55.748;48.742;2024-03-02T13:39:49;100730.09;;;13.52;32.74
65280;BME280;51878;55.748;48.742;2024-03-02T13:44:51;100742.84;;;12.53;33.75
65280;BME280;51878;55.748;48.742;2024-03-02T13:49:54;100730.75;;;10.66;36.94
65280;BME280;51878;55.748;48.742;2024-03-02T13:54:58;100711.41;;;9.60;38.22
65280;BME280;51878;55.748;48.742;2024-03-02T14:00:00;100606.38;;;8.13;40.01
65280;BME280;51878;55.748;48.742;2024-03-02T14:05:04;100682.00;;;7.53;42.66
65280;BME280;51878;55.748;48.742;2024-03-02T14:10:07;100747.44;;;7.03;44.08
65280;BME280;51878;55.748;48.742;2024-03-02T14:15:10;100576.50;;;5.25;45.70
65280;BME280;51878;55.748;48.742;2024-03-02T14:20:12;100687.81;;;5.11;47.67
65280;BME280;51878;55.748;48.742;2024-03-02T14:25:15;100747.03;;;4.63;49.62
65280;BME280;51878;55.748;48.742;2024-03-02T14:30:19;100717.78;;;3.75;51.84
65280;BME280;51878;55.748;48.742;2024-03-02T14:35:21;100756.78;;;3.16;55.25
65280;BME280;51878;55.748;48.742;2024-03-02T14:40:24;100703.28;;;2.23;57.32
65280;BME280;51878;55.748;48.742;2024-03-02T14:45:29;100716.34;;;1.59;64.37
65280;BME280;51878;55.748;48.742;2024-03-02T14:50:31;100736.88;;;1.44;67.12
65280;BME280;51878;55.748;48.742;2024-03-02T14:55:33;100746.50;;;1.04;67.89
65280;BME280;51878;55.748;48.742;2024-03-02T15:00:38;100773.66;;;0.66;74.42
65280;BME280;51878;55.748;48.742;2024-03-02T15:05:41;100772.19;;;0.30;81.41
65280;BME280;51878;55.748;48.742;2024-03-02T15:10:43;100777.22;;;0.05;84.11
65280;BME280;51878;55.748;48.742;2024-03-02T15:15:46;100766.19;;;-0.21;84.51
65280;BME280;51878;55.748;48.742;2024-03-02T15:20:48;100690.22;;;-0.93;97.70
65280;BME280;51878;55.748;48.742;2024-03-02T15:25:51;100769.13;;;-0.75;100.00
65280;BME280;51878;55.748;48.742;2024-03-02T15:30:53;100757.53;;;-0.91;100.00
65280;BME280;51878;55.748;48.742;2024-03-02T15:36:01;100764.22;;;-1.00;100.00
65280;BME280;51878;55.748;48.742;2024-03-02T15:41:04;100765.66;;;-1.10;100.00
65280;BME280;51878;55.748;48.742;2024-03-02T15:46:06;100667.19;;;-1.78;100.00
65280;BME280;51878;55.748;48.742;2024-03-02T15:51:09;100783.56;;;-1.14;100.00
65280;BME280;51878;55.748;48.742;2024-03-02T15:56:11;100752.59;;;-1.50;100.00
65280;BME280;51878;55.748;48.742;2024-03-02T16:01:13;100767.75;;;-1.52;100.00
65280;BME280;51878;55.748;48.742;2024-03-02T16:06:15;100782.06;;;-1.54;100.00
65280;BME280;51878;55.748;48.742;2024-03-02T16:11:18;100740.72;;;-1.79;100.00
65280;BME280;51878;55.748;48.742;2024-03-02T16:16:20;100768.59;;;-1.51;100.00
65280;BME280;51878;55.748;48.742;2024-03-02T16:21:23;100732.50;;;-1.74;100.00
65280;BME280;51878;55.748;48.742;2024-03-02T16:26:27;100798.91;;;-1.36;100.00
65280;BME280;51878;55.748;48.742;2024-03-02T16:31:29;100789.91;;;-1.34;100.00
65280;BME280;51878;55.748;48.742;2024-03-02T16:36:32;100719.88;;;-1.69;100.00
65280;BME280;51878;55.748;48.742;2024-03-02T16:41:39;100789.13;;;-1.18;100.00
65280;BME280;51878;55.748;48.742;2024-03-02T16:46:54;100797.97;;;-1.18;100.00
65280;BME280;51878;55.748;48.742;2024-03-02T16:52:01;100784.72;;;-1.19;100.00
65280;BME280;51878;55.748;48.742;2024-03-02T16:57:04;100782.38;;;-1.08;100.00
65280;BME280;51878;55.748;48.742;2024-03-02T17:02:06;100742.50;;;-1.26;100.00
65280;BME280;51878;55.748;48.742;2024-03-02T17:14:15;100687.97;;;-1.69;100.00
65280;BME280;51878;55.748;48.742;2024-03-02T17:20:30;100735.06;;;-1.36;100.00
65280;BME280;51878;55.748;48.742;2024-03-02T17:25:34;100786.22;;;-1.14;100.00
65280;BME280;51878;55.748;48.742;2024-03-02T17:31:36;100783.50;;;-1.12;100.00
65280;BME280;51878;55.748;48.742;2024-03-02T17:36:38;100774.19;;;-1.21;100.00
65280;BME280;51878;55.748;48.742;2024-03-02T17:41:41;100781.22;;;-1.20;100.00
65280;BME280;51878;55.748;48.742;2024-03-02T17:46:43;100754.00;;;-1.42;100.00
65280;BME280;51878;55.748;48.742;2024-03-02T17:51:45;100779.19;;;-1.32;100.00
65280;BME280;51878;55.748;48.742;2024-03-02T17:56:47;100794.44;;;-1.36;100.00
65280;BME280;51878;55.748;48.742;2024-03-02T18:01:49;100800.91;;;-1.41;100.00
65280;BME280;51878;55.748;48.742;2024-03-02T18:06:52;100797.84;;;-1.51;100.00
65280;BME280;51878;55.748;48.742;2024-03-02T18:11:55;100802.31;;;-1.52;100.00
65280;BME280;51878;55.748;48.742;2024-03-02T18:16:57;100761.84;;;-1.76;100.00
65280;BME280;51878;55.748;48.742;2024-03-02T18:21:59;100804.31;;;-1.57;100.00
65280;BME280;51878;55.748;48.742;2024-03-02T18:27:02;100731.59;;;-2.10;100.00
65280;BME280;51878;55.748;48.742;2024-03-02T18:32:05;100787.78;;;-1.81;100.00
65280;BME280;51878;55.748;48.742;2024-03-02T18:37:09;100750.06;;;-2.06;100.00
65280;BME280;51878;55.748;48.742;2024-03-02T18:42:14;100799.00;;;-1.93;100.00
65280;BME280;51878;55.748;48.742;2024-03-02T18:47:17;100703.22;;;-2.45;100.00
65280;BME280;51878;55.748;48.742;2024-03-02T18:52:20;100792.06;;;-1.96;100.00
65280;BME280;51878;55.748;48.742;2024-03-02T18:57:22;100703.22;;;-2.45;100.00
65280;BME280;51878;55.748;48.742;2024-03-02T19:02:27;100791.84;;;-1.91;100.00
65280;BME280;51878;55.748;48.742;2024-03-02T19:07:31;100743.59;;;-2.20;100.00
65280;BME280;51878;55.748;48.742;2024-03-02T19:12:34;100710.47;;;-2.49;100.00
65280;BME280;51878;55.748;48.742;2024-03-02T19:17:37;100786.47;;;-2.09;100.00
65280;BME280;51878;55.748;48.742;2024-03-02T19:22:39;100758.41;;;-2.33;100.00
65280;BME280;51878;55.748;48.742;2024-03-02T19:27:42;100791.03;;;-2.12;100.00
65280;BME280;51878;55.748;48.742;2024-03-02T19:32:44;100726.69;;;-2.55;100.00
65280;BME280;51878;55.748;48.742;2024-03-02T19:37:46;100758.69;;;-2.39;100.00
65280;BME280;51878;55.748;48.742;2024-03-02T19:42:48;100779.50;;;-2.30;100.00
65280;BME280;51878;55.748;48.742;2024-03-02T19:47:51;100755.66;;;-2.51;100.00
65280;BME280;51878;55.748;48.742;2024-03-02T19:52:53;100792.78;;;-2.30;100.00
65280;BME280;51878;55.748;48.742;2024-03-02T19:57:56;100746.28;;;-2.58;100.00
65280;BME280;51878;55.748;48.742;2024-03-02T20:02:59;100778.97;;;-2.38;100.00
65280;BME280;51878;55.748;48.742;2024-03-02T20:08:01;100749.56;;;-2.53;100.00
65280;BME280;51878;55.748;48.742;2024-03-02T20:13:04;100788.47;;;-2.33;100.00
65280;BME280;51878;55.748;48.742;2024-03-02T20:18:08;100739.38;;;-2.62;100.00
65280;BME280;51878;55.748;48.742;2024-03-02T20:23:10;100705.00;;;-2.84;100.00
65280;BME280;51878;55.748;48.742;2024-03-02T20:28:13;100743.09;;;-2.66;100.00
65280;BME280;51878;55.748;48.742;2024-03-02T20:33:15;100782.75;;;-2.42;100.00
65280;BME280;51878;55.748;48.742;2024-03-02T20:38:17;100763.84;;;-2.55;100.00
65280;BME280;51878;55.748;48.742;2024-03-02T20:43:19;100756.50;;;-2.69;100.00
65280;BME280;51878;55.748;48.742;2024-03-02T20:48:22;100749.63;;;-2.73;100.00
65280;BME280;51878;55.748;48.742;2024-03-02T20:53:24;100776.75;;;-2.66;100.00
65280;BME280;51878;55.748;48.742;2024-03-02T20:58:26;100748.78;;;-2.94;100.00
65280;BME280;51878;55.748;48.742;2024-03-02T21:03:28;100741.31;;;-3.05;100.00
65280;BME280;51878;55.748;48.742;2024-03-02T21:08:31;100786.41;;;-2.84;100.00
65280;BME280;51878;55.748;48.742;2024-03-02T21:13:33;100780.69;;;-2.96;100.00
65280;BME280;51878;55.748;48.742;2024-03-02T21:18:36;100787.66;;;-2.93;100.00
65280;BME280;51878;55.748;48.742;2024-03-02T21:23:38;100743.91;;;-3.24;100.00
65280;BME280;51878;55.748;48.742;2024-03-02T21:28:41;100792.44;;;-3.01;100.00
65280;BME280;51878;55.748;48.742;2024-03-02T21:33:43;100765.94;;;-3.22;100.00
65280;BME280;51878;55.748;48.742;2024-03-02T21:38:46;100804.16;;;-3.07;100.00
65280;BME280;51878;55.748;48.742;2024-03-02T21:43:48;100762.25;;;-3.40;100.00
65280;BME280;51878;55.748;48.742;2024-03-02T21:48:50;100802.97;;;-3.20;100.00
65280;BME280;51878;55.748;48.742;2024-03-02T21:53:53;100808.28;;;-3.20;100.00
65280;BME280;51878;55.748;48.742;2024-03-02T21:58:57;100818.38;;;-3.28;100.00
65280;BME280;51878;55.748;48.742;2024-03-02T22:04:03;100771.94;;;-3.59;100.00
65280;BME280;51878;55.748;48.742;2024-03-02T22:09:05;100816.16;;;-3.39;100.00
65280;BME280;51878;55.748;48.742;2024-03-02T22:14:07;100795.44;;;-3.51;100.00
65280;BME280;51878;55.748;48.742;2024-03-02T22:19:10;100775.69;;;-3.65;100.00
65280;BME280;51878;55.748;48.742;2024-03-02T22:24:13;100798.84;;;-3.48;100.00
65280;BME280;51878;55.748;48.742;2024-03-02T22:29:18;100811.91;;;-3.43;100.00
65280;BME280;51878;55.748;48.742;2024-03-02T22:34:20;100775.03;;;-3.70;100.00
65280;BME280;51878;55.748;48.742;2024-03-02T22:39:22;100800.19;;;-3.60;100.00
65280;BME280;51878;55.748;48.742;2024-03-02T22:44:25;100803.84;;;-3.62;100.00
65280;BME280;51878;55.748;48.742;2024-03-02T22:49:30;100760.84;;;-3.91;100.00
65280;BME280;51878;55.748;48.742;2024-03-02T22:54:33;100796.28;;;-3.71;100.00
65280;BME280;51878;55.748;48.742;2024-03-02T22:59:35;100802.59;;;-3.76;100.00
65280;BME280;51878;55.748;48.742;2024-03-02T23:04:40;100797.63;;;-3.83;100.00
65280;BME280;51878;55.748;48.742;2024-03-02T23:09:42;100779.53;;;-3.94;100.00
65280;BME280;51878;55.748;48.742;2024-03-02T23:14:45;100789.13;;;-3.91;100.00
65280;BME280;51878;55.748;48.742;2024-03-02T23:19:47;100788.88;;;-3.85;100.00
65280;BME280;51878;55.748;48.742;2024-03-02T23:24:49;100709.53;;;-4.32;100.00
65280;BME280;51878;55.748;48.742;2024-03-02T23:29:52;100745.63;;;-4.08;100.00
65280;BME280;51878;55.748;48.742;2024-03-02T23:34:54;100755.78;;;-3.97;100.00
65280;BME280;51878;55.748;48.742;2024-03-02T23:39:56;100742.13;;;-4.08;100.00
65280;BME280;51878;55.748;48.742;2024-03-02T23:45:05;100725.09;;;-4.23;100.00
65280;BME280;51878;55.748;48.742;2024-03-02T23:50:07;100654.38;;;-4.65;100.00
65280;BME280;51878;55.748;48.742;2024-03-02T23:55:12;100758.75;;;-4.05;100.00
